sensor_id;sensor_type;location;lat;lon;timestamp;temperature;humidity
11242;DHT22;5678;52.370;9.006;2023-03-01T00:00:43;-5.10;99.90
11242;DHT22;5678;52.370;9.006;2023-03-01T00:03:13;-5.00;99.90
11242;DHT22;5678;52.370;9.006;2023-03-01T00:05:44;-5.00;99.90
11242;DHT22;5678;52.370;9.006;2023-03-01T00:08:12;-5.10;99.90
11242;DHT22;5678;52.370;9.006;2023-03-01T00:10:40;-5.10;99.90
11242;DHT22;5678;52.370;9.006;2023-03-01T00:13:08;-5.30;99.90
11242;DHT22;5678;52.370;9.006;2023-03-01T00:15:38;-5.20;99.90
11242;DHT22;5678;52.370;9.006;2023-03-01T00:18:08;-5.10;99.90
11242;DHT22;5678;52.370;9.006;2023-03-01T00:20:36;-5.20;99.90
11242;DHT22;5678;52.370;9.006;2023-03-01T00:23:04;-5.20;99.90
11242;DHT22;5678;52.370;9.006;2023-03-01T00:25:32;-5.30;99.90
11242;DHT22;5678;52.370;9.006;2023-03-01T00:28:00;-5.30;99.90
11242;DHT22;5678;52.370;9.006;2023-03-01T00:30:27;-5.40;99.90
11242;DHT22;5678;52.370;9.006;2023-03-01T00:32:55;-5.50;99.90
11242;DHT22;5678;52.370;9.006;2023-03-01T00:35:25;-5.40;99.90
11242;DHT22;5678;52.370;9.006;2023-03-01T00:37:53;-5.40;99.90
11242;DHT22;5678;52.370;9.006;2023-03-01T00:40:24;-5.40;99.90
11242;DHT22;5678;52.370;9.006;2023-03-01T00:42:52;-5.40;99.90
11242;DHT22;5678;52.370;9.006;2023-03-01T00:45:20;-5.40;99.90
11242;DHT22;5678;52.370;9.006;2023-03-01T00:47:48;-5.40;99.90
11242;DHT22;5678;52.370;9.006;2023-03-01T00:50:16;-5.40;99.90
11242;DHT22;5678;52.370;9.006;2023-03-01T00:52:46;-5.40;99.90
11242;DHT22;5678;52.370;9.006;2023-03-01T00:55:14;-5.50;99.90
11242;DHT22;5678;52.370;9.006;2023-03-01T00:57:42;-5.40;99.90
11242;DHT22;5678;52.370;9.006;2023-03-01T01:00:11;-5.40;99.90
11242;DHT22;5678;52.370;9.006;2023-03-01T01:02:39;-5.80;99.90
11242;DHT22;5678;52.370;9.006;2023-03-01T01:05:07;-5.50;99.90
11242;DHT22;5678;52.370;9.006;2023-03-01T01:07:35;-5.50;99.90
11242;DHT22;5678;52.370;9.006;2023-03-01T01:10:06;-5.60;99.90
11242;DHT22;5678;52.370;9.006;2023-03-01T01:12:34;-5.60;99.90
11242;DHT22;5678;52.370;9.006;2023-03-01T01:15:02;-5.70;99.90
11242;DHT22;5678;52.370;9.006;2023-03-01T01:17:30;-5.70;99.90
11242;DHT22;5678;52.370;9.006;2023-03-01T01:19:58;-5.70;99.90
11242;DHT22;5678;52.370;9.006;2023-03-01T01:22:26;-5.70;99.90
11242;DHT22;5678;52.370;9.006;2023-03-01T01:24:54;-5.80;99.90
11242;DHT22;5678;52.370;9.006;2023-03-01T01:27:23;-5.70;99.90
11242;DHT22;5678;52.370;9.006;2023-03-01T01:29:52;-5.50;99.90
11242;DHT22;5678;52.370;9.006;2023-03-01T01:32:20;-5.80;99.90
11242;DHT22;5678;52.370;9.006;2023-03-01T01:34:51;-5.80;99.90
11242;DHT22;5678;52.370;9.006;2023-03-01T01:37:19;-5.90;99.90
11242;DHT22;5678;52.370;9.006;2023-03-01T01:39:47;-5.80;99.90
11242;DHT22;5678;52.370;9.006;2023-03-01T01:42:16;-5.90;99.90
11242;DHT22;5678;52.370;9.006;2023-03-01T01:44:47;-5.90;99.90
11242;DHT22;5678;52.370;9.006;2023-03-01T01:47:18;-5.90;99.90
11242;DHT22;5678;52.370;9.006;2023-03-01T01:49:49;-5.90;99.90
11242;DHT22;5678;52.370;9.006;2023-03-01T01:52:21;-6.00;99.90
11242;DHT22;5678;52.370;9.006;2023-03-01T01:54:53;-6.00;99.90
11242;DHT22;5678;52.370;9.006;2023-03-01T01:57:25;-6.00;99.90
11242;DHT22;5678;52.370;9.006;2023-03-01T01:59:58;-5.40;99.90
11242;DHT22;5678;52.370;9.006;2023-03-01T02:02:28;-5.90;99.90
11242;DHT22;5678;52.370;9.006;2023-03-01T02:05:02;-6.00;99.90
11242;DHT22;5678;52.370;9.006;2023-03-01T02:07:31;-6.00;99.90
11242;DHT22;5678;52.370;9.006;2023-03-01T02:09:59;-6.10;99.90
11242;DHT22;5678;52.370;9.006;2023-03-01T02:12:28;-6.10;99.90
11242;DHT22;5678;52.370;9.006;2023-03-01T02:14:58;-6.10;99.90
11242;DHT22;5678;52.370;9.006;2023-03-01T02:17:26;-6.20;99.90
11242;DHT22;5678;52.370;9.006;2023-03-01T02:20:04;-6.20;99.90
11242;DHT22;5678;52.370;9.006;2023-03-01T02:22:37;-6.20;99.90
11242;DHT22;5678;52.370;9.006;2023-03-01T02:25:12;-6.20;99.90
11242;DHT22;5678;52.370;9.006;2023-03-01T02:27:51;-6.00;99.90
11242;DHT22;5678;52.370;9.006;2023-03-01T02:30:24;-6.20;99.90
11242;DHT22;5678;52.370;9.006;2023-03-01T02:32:54;-6.20;99.90
11242;DHT22;5678;52.370;9.006;2023-03-01T02:35:31;-6.20;99.90
11242;DHT22;5678;52.370;9.006;2023-03-01T02:38:01;-6.30;99.90
11242;DHT22;5678;52.370;9.006;2023-03-01T02:40:30;-6.20;99.90
11242;DHT22;5678;52.370;9.006;2023-03-01T02:42:59;-6.30;99.90
11242;DHT22;5678;52.370;9.006;2023-03-01T02:45:28;-6.30;99.90
11242;DHT22;5678;52.370;9.006;2023-03-01T02:47:57;-6.30;99.90
11242;DHT22;5678;52.370;9.006;2023-03-01T02:50:45;-6.30;99.90
11242;DHT22;5678;52.370;9.006;2023-03-01T02:53:17;-6.30;99.90
11242;DHT22;5678;52.370;9.006;2023-03-01T02:55:50;-6.40;99.90
11242;DHT22;5678;52.370;9.006;2023-03-01T02:58:18;-6.40;99.90
11242;DHT22;5678;52.370;9.006;2023-03-01T03:00:47;-6.40;99.90
11242;DHT22;5678;52.370;9.006;2023-03-01T03:03:17;-6.30;99.90
11242;DHT22;5678;52.370;9.006;2023-03-01T03:05:46;-6.40;99.90
11242;DHT22;5678;52.370;9.006;2023-03-01T03:08:15;-6.30;99.90
11242;DHT22;5678;52.370;9.006;2023-03-01T03:10:50;-6.40;99.90
11242;DHT22;5678;52.370;9.006;2023-03-01T03:13:18;-6.40;99.90
11242;DHT22;5678;52.370;9.006;2023-03-01T03:15:49;-6.50;99.90
11242;DHT22;5678;52.370;9.006;2023-03-01T03:18:18;-6.50;99.90
11242;DHT22;5678;52.370;9.006;2023-03-01T03:20:46;-6.40;99.90
11242;DHT22;5678;52.370;9.006;2023-03-01T03:23:19;-6.40;99.90
11242;DHT22;5678;52.370;9.006;2023-03-01T03:25:48;-6.50;99.90
11242;DHT22;5678;52.370;9.006;2023-03-01T03:28:16;-6.60;99.90
11242;DHT22;5678;52.370;9.006;2023-03-01T03:30:45;-6.70;99.90
11242;DHT22;5678;52.370;9.006;2023-03-01T03:33:14;-6.60;99.90
11242;DHT22;5678;52.370;9.006;2023-03-01T03:35:46;-6.70;99.90
11242;DHT22;5678;52.370;9.006;2023-03-01T03:38:16;-6.60;99.90
11242;DHT22;5678;52.370;9.006;2023-03-01T03:40:46;-6.70;99.90
11242;DHT22;5678;52.370;9.006;2023-03-01T03:43:17;-6.80;99.90
11242;DHT22;5678;52.370;9.006;2023-03-01T03:45:45;-6.70;99.90
11242;DHT22;5678;52.370;9.006;2023-03-01T03:48:15;-6.90;99.90
11242;DHT22;5678;52.370;9.006;2023-03-01T03:50:48;-6.80;99.90
11242;DHT22;5678;52.370;9.006;2023-03-01T03:53:17;-6.80;99.90
11242;DHT22;5678;52.370;9.006;2023-03-01T03:55:45;-6.80;99.90
11242;DHT22;5678;52.370;9.006;2023-03-01T03:58:16;-6.80;99.90
11242;DHT22;5678;52.370;9.006;2023-03-01T04:00:47;-6.80;99.90
11242;DHT22;5678;52.370;9.006;2023-03-01T04:03:18;-6.90;99.90
11242;DHT22;5678;52.370;9.006;2023-03-01T04:05:47;-6.90;99.90
11242;DHT22;5678;52.370;9.006;2023-03-01T04:08:17;-7.00;99.90
11242;DHT22;5678;52.370;9.006;2023-03-01T04:10:47;-7.10;99.90
11242;DHT22;5678;52.370;9.006;2023-03-01T04:13:18;-7.10;99.90
11242;DHT22;5678;52.370;9.006;2023-03-01T04:15:47;-7.10;99.90
11242;DHT22;5678;52.370;9.006;2023-03-01T04:18:17;-7.10;99.90
11242;DHT22;5678;52.370;9.006;2023-03-01T04:20:46;-7.10;99.90
11242;DHT22;5678;52.370;9.006;2023-03-01T04:23:15;-7.20;99.90
11242;DHT22;5678;52.370;9.006;2023-03-01T04:25:47;-7.10;99.90
11242;DHT22;5678;52.370;9.006;2023-03-01T04:28:21;-7.00;99.90
11242;DHT22;5678;52.370;9.006;2023-03-01T04:30:51;-7.00;99.90
11242;DHT22;5678;52.370;9.006;2023-03-01T04:33:21;-7.00;99.90
11242;DHT22;5678;52.370;9.006;2023-03-01T04:35:49;-7.10;99.90
11242;DHT22;5678;52.370;9.006;2023-03-01T04:38:18;-7.10;99.90
11242;DHT22;5678;52.370;9.006;2023-03-01T04:40:46;-7.10;99.90
11242;DHT22;5678;52.370;9.006;2023-03-01T04:43:14;-7.10;99.90
11242;DHT22;5678;52.370;9.006;2023-03-01T04:45:42;-7.10;99.90
11242;DHT22;5678;52.370;9.006;2023-03-01T04:48:10;-7.10;99.90
11242;DHT22;5678;52.370;9.006;2023-03-01T04:50:39;-7.10;99.90
11242;DHT22;5678;52.370;9.006;2023-03-01T04:53:07;-7.20;99.90
11242;DHT22;5678;52.370;9.006;2023-03-01T04:55:35;-7.10;99.90
11242;DHT22;5678;52.370;9.006;2023-03-01T04:58:03;-7.10;99.90
11242;DHT22;5678;52.370;9.006;2023-03-01T05:00:31;-7.00;99.90
11242;DHT22;5678;52.370;9.006;2023-03-01T05:03:00;-7.10;99.90
11242;DHT22;5678;52.370;9.006;2023-03-01T05:05:32;-7.00;99.90
11242;DHT22;5678;52.370;9.006;2023-03-01T05:08:03;-7.00;99.90
11242;DHT22;5678;52.370;9.006;2023-03-01T05:10:32;-6.90;99.90
11242;DHT22;5678;52.370;9.006;2023-03-01T05:13:03;-7.00;99.90
11242;DHT22;5678;52.370;9.006;2023-03-01T05:15:31;-6.90;99.90
11242;DHT22;5678;52.370;9.006;2023-03-01T05:18:00;-7.00;99.90
11242;DHT22;5678;52.370;9.006;2023-03-01T05:20:28;-7.00;99.90
11242;DHT22;5678;52.370;9.006;2023-03-01T05:22:58;-7.10;99.90
11242;DHT22;5678;52.370;9.006;2023-03-01T05:25:28;-7.00;99.90
11242;DHT22;5678;52.370;9.006;2023-03-01T05:27:59;-7.10;99.90
11242;DHT22;5678;52.370;9.006;2023-03-01T05:30:31;-7.10;99.90
11242;DHT22;5678;52.370;9.006;2023-03-01T05:32:59;-7.10;99.90
11242;DHT22;5678;52.370;9.006;2023-03-01T05:35:28;-7.10;99.90
11242;DHT22;5678;52.370;9.006;2023-03-01T05:37:59;-7.20;99.90
11242;DHT22;5678;52.370;9.006;2023-03-01T05:40:28;-7.20;99.90
11242;DHT22;5678;52.370;9.006;2023-03-01T05:42:57;-7.20;99.90
11242;DHT22;5678;52.370;9.006;2023-03-01T05:45:26;-7.30;99.90
11242;DHT22;5678;52.370;9.006;2023-03-01T05:47:55;-7.30;99.90
11242;DHT22;5678;52.370;9.006;2023-03-01T05:50:25;-7.30;99.90
11242;DHT22;5678;52.370;9.006;2023-03-01T05:52:58;-7.30;99.90
11242;DHT22;5678;52.370;9.006;2023-03-01T05:55:28;-7.30;99.90
11242;DHT22;5678;52.370;9.006;2023-03-01T05:57:58;-7.30;99.90
11242;DHT22;5678;52.370;9.006;2023-03-01T06:00:26;-7.30;99.90
11242;DHT22;5678;52.370;9.006;2023-03-01T06:02:54;-7.20;99.90
11242;DHT22;5678;52.370;9.006;2023-03-01T06:05:23;-7.30;99.90
11242;DHT22;5678;52.370;9.006;2023-03-01T06:07:55;-7.30;99.90
11242;DHT22;5678;52.370;9.006;2023-03-01T06:10:28;-7.30;99.90
11242;DHT22;5678;52.370;9.006;2023-03-01T06:12:57;-7.30;99.90
11242;DHT22;5678;52.370;9.006;2023-03-01T06:15:25;-7.40;99.90
11242;DHT22;5678;52.370;9.006;2023-03-01T06:17:54;-7.40;99.90
11242;DHT22;5678;52.370;9.006;2023-03-01T06:20:28;-7.40;99.90
11242;DHT22;5678;52.370;9.006;2023-03-01T06:22:56;-7.40;99.90
11242;DHT22;5678;52.370;9.006;2023-03-01T06:25:26;-7.40;99.90
11242;DHT22;5678;52.370;9.006;2023-03-01T06:27:55;-7.40;99.90
11242;DHT22;5678;52.370;9.006;2023-03-01T06:30:25;-7.30;99.90
11242;DHT22;5678;52.370;9.006;2023-03-01T06:32:53;-7.20;99.90
11242;DHT22;5678;52.370;9.006;2023-03-01T06:35:27;-7.10;99.90
11242;DHT22;5678;52.370;9.006;2023-03-01T06:37:57;-7.00;99.90
11242;DHT22;5678;52.370;9.006;2023-03-01T06:40:25;-7.10;99.90
11242;DHT22;5678;52.370;9.006;2023-03-01T06:42:55;-7.10;99.90
11242;DHT22;5678;52.370;9.006;2023-03-01T06:45:23;-7.10;99.90
11242;DHT22;5678;52.370;9.006;2023-03-01T06:47:51;-7.10;99.90
11242;DHT22;5678;52.370;9.006;2023-03-01T06:50:20;-6.20;99.90
11242;DHT22;5678;52.370;9.006;2023-03-01T06:52:55;-5.00;99.90
11242;DHT22;5678;52.370;9.006;2023-03-01T06:55:23;-6.80;99.90
11242;DHT22;5678;52.370;9.006;2023-03-01T06:57:55;-6.80;99.90
11242;DHT22;5678;52.370;9.006;2023-03-01T07:00:24;-6.70;99.90
11242;DHT22;5678;52.370;9.006;2023-03-01T07:02:52;-6.70;99.90
11242;DHT22;5678;52.370;9.006;2023-03-01T07:05:20;-6.60;99.90
11242;DHT22;5678;52.370;9.006;2023-03-01T07:07:48;-6.60;99.90
11242;DHT22;5678;52.370;9.006;2023-03-01T07:10:27;-6.60;99.90
11242;DHT22;5678;52.370;9.006;2023-03-01T07:12:57;-6.40;99.90
11242;DHT22;5678;52.370;9.006;2023-03-01T07:15:26;-6.40;99.90
11242;DHT22;5678;52.370;9.006;2023-03-01T07:17:54;-6.20;99.90
11242;DHT22;5678;52.370;9.006;2023-03-01T07:20:23;-6.20;99.90
11242;DHT22;5678;52.370;9.006;2023-03-01T07:22:52;-6.20;99.90
11242;DHT22;5678;52.370;9.006;2023-03-01T07:25:20;-6.10;99.90
11242;DHT22;5678;52.370;9.006;2023-03-01T07:27:49;-6.20;99.90
11242;DHT22;5678;52.370;9.006;2023-03-01T07:30:19;-6.10;99.90
11242;DHT22;5678;52.370;9.006;2023-03-01T07:32:47;-6.00;99.90
11242;DHT22;5678;52.370;9.006;2023-03-01T07:35:15;-5.90;99.90
11242;DHT22;5678;52.370;9.006;2023-03-01T07:37:43;-5.70;99.90
11242;DHT22;5678;52.370;9.006;2023-03-01T07:40:12;-5.50;99.90
11242;DHT22;5678;52.370;9.006;2023-03-01T07:42:40;-5.30;99.90
11242;DHT22;5678;52.370;9.006;2023-03-01T07:45:08;-5.20;99.90
11242;DHT22;5678;52.370;9.006;2023-03-01T07:47:38;-5.00;99.90
11242;DHT22;5678;52.370;9.006;2023-03-01T07:50:06;-5.00;99.90
11242;DHT22;5678;52.370;9.006;2023-03-01T07:52:34;-4.70;99.90
11242;DHT22;5678;52.370;9.006;2023-03-01T07:55:03;-4.60;99.90
11242;DHT22;5678;52.370;9.006;2023-03-01T07:57:31;-4.40;99.90
11242;DHT22;5678;52.370;9.006;2023-03-01T07:59:59;-4.30;99.90
11242;DHT22;5678;52.370;9.006;2023-03-01T08:02:26;-4.10;99.90
11242;DHT22;5678;52.370;9.006;2023-03-01T08:04:56;-4.00;99.90
11242;DHT22;5678;52.370;9.006;2023-03-01T08:07:24;-3.90;99.90
11242;DHT22;5678;52.370;9.006;2023-03-01T08:09:51;-3.80;99.90
11242;DHT22;5678;52.370;9.006;2023-03-01T08:12:19;-3.70;99.90
11242;DHT22;5678;52.370;9.006;2023-03-01T08:14:47;-3.60;99.90
11242;DHT22;5678;52.370;9.006;2023-03-01T08:17:15;-3.40;99.90
11242;DHT22;5678;52.370;9.006;2023-03-01T08:19:43;-3.30;99.90
11242;DHT22;5678;52.370;9.006;2023-03-01T08:22:12;-3.10;99.90
11242;DHT22;5678;52.370;9.006;2023-03-01T08:24:40;-2.80;99.90
11242;DHT22;5678;52.370;9.006;2023-03-01T08:27:08;-2.80;99.90
11242;DHT22;5678;52.370;9.006;2023-03-01T08:29:36;-2.40;99.90
11242;DHT22;5678;52.370;9.006;2023-03-01T08:32:04;-2.20;99.90
11242;DHT22;5678;52.370;9.006;2023-03-01T08:34:32;-2.10;99.90
11242;DHT22;5678;52.370;9.006;2023-03-01T08:37:02;-1.90;99.90
11242;DHT22;5678;52.370;9.006;2023-03-01T08:39:31;-1.50;58.00
11242;DHT22;5678;52.370;9.006;2023-03-01T08:41:59;-1.20;1.00
11242;DHT22;5678;52.370;9.006;2023-03-01T08:44:27;-1.00;1.00
11242;DHT22;5678;52.370;9.006;2023-03-01T08:46:55;-0.90;1.00
11242;DHT22;5678;52.370;9.006;2023-03-01T08:49:24;-0.60;1.00
11242;DHT22;5678;52.370;9.006;2023-03-01T08:51:52;-0.40;1.00
11242;DHT22;5678;52.370;9.006;2023-03-01T08:54:21;-0.30;1.00
11242;DHT22;5678;52.370;9.006;2023-03-01T08:56:50;-0.10;1.00
11242;DHT22;5678;52.370;9.006;2023-03-01T08:59:18;0.00;1.00
11242;DHT22;5678;52.370;9.006;2023-03-01T09:01:46;0.20;1.00
11242;DHT22;5678;52.370;9.006;2023-03-01T09:04:15;0.30;1.00
11242;DHT22;5678;52.370;9.006;2023-03-01T09:06:43;0.40;1.00
11242;DHT22;5678;52.370;9.006;2023-03-01T09:09:13;0.60;1.00
11242;DHT22;5678;52.370;9.006;2023-03-01T09:11:43;0.80;1.00
11242;DHT22;5678;52.370;9.006;2023-03-01T09:14:18;0.90;1.00
11242;DHT22;5678;52.370;9.006;2023-03-01T09:16:51;1.10;99.90
11242;DHT22;5678;52.370;9.006;2023-03-01T09:19:19;1.20;1.00
11242;DHT22;5678;52.370;9.006;2023-03-01T09:21:47;1.30;50.50
11242;DHT22;5678;52.370;9.006;2023-03-01T09:24:21;1.50;1.00
11242;DHT22;5678;52.370;9.006;2023-03-01T09:26:51;1.70;99.90
11242;DHT22;5678;52.370;9.006;2023-03-01T09:29:21;1.90;99.90
11242;DHT22;5678;52.370;9.006;2023-03-01T09:31:49;2.10;99.90
11242;DHT22;5678;52.370;9.006;2023-03-01T09:34:17;2.30;99.90
11242;DHT22;5678;52.370;9.006;2023-03-01T09:36:50;2.40;99.90
11242;DHT22;5678;52.370;9.006;2023-03-01T09:39:18;4.00;1.00
11242;DHT22;5678;52.370;9.006;2023-03-01T09:41:50;3.10;26.60
11242;DHT22;5678;52.370;9.006;2023-03-01T09:44:29;2.70;99.90
11242;DHT22;5678;52.370;9.006;2023-03-01T09:46:59;2.90;99.90
11242;DHT22;5678;52.370;9.006;2023-03-01T09:49:28;3.00;99.90
11242;DHT22;5678;52.370;9.006;2023-03-01T09:52:00;3.20;99.90
11242;DHT22;5678;52.370;9.006;2023-03-01T09:54:31;3.30;99.90
11242;DHT22;5678;52.370;9.006;2023-03-01T09:57:18;3.40;99.90
11242;DHT22;5678;52.370;9.006;2023-03-01T10:00:00;3.60;99.90
11242;DHT22;5678;52.370;9.006;2023-03-01T10:02:37;3.80;99.90
11242;DHT22;5678;52.370;9.006;2023-03-01T10:05:19;3.80;99.90
11242;DHT22;5678;52.370;9.006;2023-03-01T10:07:57;3.90;99.90
11242;DHT22;5678;52.370;9.006;2023-03-01T10:10:34;4.00;99.90
11242;DHT22;5678;52.370;9.006;2023-03-01T10:13:06;4.10;99.90
11242;DHT22;5678;52.370;9.006;2023-03-01T10:15:43;4.10;99.90
11242;DHT22;5678;52.370;9.006;2023-03-01T10:18:14;4.20;99.90
11242;DHT22;5678;52.370;9.006;2023-03-01T10:20:47;4.80;99.90
11242;DHT22;5678;52.370;9.006;2023-03-01T10:23:18;4.30;99.90
11242;DHT22;5678;52.370;9.006;2023-03-01T10:25:59;4.70;99.90
11242;DHT22;5678;52.370;9.006;2023-03-01T10:28:35;4.50;99.90
11242;DHT22;5678;52.370;9.006;2023-03-01T10:31:12;4.60;99.90
11242;DHT22;5678;52.370;9.006;2023-03-01T10:33:41;4.70;99.90
11242;DHT22;5678;52.370;9.006;2023-03-01T10:36:09;4.80;99.90
11242;DHT22;5678;52.370;9.006;2023-03-01T10:38:54;4.90;99.90
11242;DHT22;5678;52.370;9.006;2023-03-01T10:41:25;5.90;99.90
11242;DHT22;5678;52.370;9.006;2023-03-01T10:43:55;5.10;99.90
11242;DHT22;5678;52.370;9.006;2023-03-01T10:46:28;5.20;99.90
11242;DHT22;5678;52.370;9.006;2023-03-01T10:49:18;5.40;99.90
11242;DHT22;5678;52.370;9.006;2023-03-01T10:51:48;5.60;99.90
11242;DHT22;5678;52.370;9.006;2023-03-01T10:54:18;5.50;99.90
11242;DHT22;5678;52.370;9.006;2023-03-01T10:56:51;5.60;99.90
11242;DHT22;5678;52.370;9.006;2023-03-01T10:59:25;5.60;99.90
11242;DHT22;5678;52.370;9.006;2023-03-01T11:02:16;5.60;99.90
11242;DHT22;5678;52.370;9.006;2023-03-01T11:04:59;5.90;99.90
11242;DHT22;5678;52.370;9.006;2023-03-01T11:07:27;6.00;99.90
11242;DHT22;5678;52.370;9.006;2023-03-01T11:09:56;5.60;99.90
11242;DHT22;5678;52.370;9.006;2023-03-01T11:12:24;5.50;99.90
11242;DHT22;5678;52.370;9.006;2023-03-01T11:14:54;5.80;99.90
11242;DHT22;5678;52.370;9.006;2023-03-01T11:17:26;5.50;99.90
11242;DHT22;5678;52.370;9.006;2023-03-01T11:20:09;5.70;99.90
11242;DHT22;5678;52.370;9.006;2023-03-01T11:22:47;5.80;99.90
11242;DHT22;5678;52.370;9.006;2023-03-01T11:25:18;5.80;99.90
11242;DHT22;5678;52.370;9.006;2023-03-01T11:27:47;6.30;99.90
11242;DHT22;5678;52.370;9.006;2023-03-01T11:30:20;6.20;99.90
11242;DHT22;5678;52.370;9.006;2023-03-01T11:32:56;5.90;99.90
11242;DHT22;5678;52.370;9.006;2023-03-01T11:35:29;5.80;99.90
11242;DHT22;5678;52.370;9.006;2023-03-01T11:38:05;5.90;99.90
11242;DHT22;5678;52.370;9.006;2023-03-01T11:40:40;5.90;99.90
11242;DHT22;5678;52.370;9.006;2023-03-01T11:43:17;5.90;99.90
11242;DHT22;5678;52.370;9.006;2023-03-01T11:46:18;6.90;99.90
11242;DHT22;5678;52.370;9.006;2023-03-01T11:48:59;6.00;99.90
11242;DHT22;5678;52.370;9.006;2023-03-01T11:51:41;6.20;99.90
11242;DHT22;5678;52.370;9.006;2023-03-01T11:54:17;6.20;99.90
11242;DHT22;5678;52.370;9.006;2023-03-01T11:56:48;7.20;99.90
11242;DHT22;5678;52.370;9.006;2023-03-01T11:59:44;6.10;99.90
11242;DHT22;5678;52.370;9.006;2023-03-01T12:05:23;6.50;99.90
11242;DHT22;5678;52.370;9.006;2023-03-01T12:07:56;6.30;99.90
11242;DHT22;5678;52.370;9.006;2023-03-01T12:10:28;6.40;99.90
11242;DHT22;5678;52.370;9.006;2023-03-01T12:13:24;6.40;99.90
11242;DHT22;5678;52.370;9.006;2023-03-01T12:16:12;6.40;99.90
11242;DHT22;5678;52.370;9.006;2023-03-01T12:19:18;6.50;99.90
11242;DHT22;5678;52.370;9.006;2023-03-01T12:22:09;6.40;99.90
11242;DHT22;5678;52.370;9.006;2023-03-01T12:28:07;6.40;99.90
11242;DHT22;5678;52.370;9.006;2023-03-01T12:30:46;6.50;99.90
11242;DHT22;5678;52.370;9.006;2023-03-01T12:33:24;6.80;99.90
11242;DHT22;5678;52.370;9.006;2023-03-01T12:39:02;6.70;99.90
11242;DHT22;5678;52.370;9.006;2023-03-01T12:41:43;6.80;99.90
11242;DHT22;5678;52.370;9.006;2023-03-01T12:44:28;6.80;99.90
11242;DHT22;5678;52.370;9.006;2023-03-01T12:47:16;6.80;99.90
11242;DHT22;5678;52.370;9.006;2023-03-01T12:49:50;6.80;99.90
11242;DHT22;5678;52.370;9.006;2023-03-01T12:52:22;6.90;99.90
11242;DHT22;5678;52.370;9.006;2023-03-01T12:54:55;6.90;99.90
11242;DHT22;5678;52.370;9.006;2023-03-01T12:57:28;6.80;99.90
11242;DHT22;5678;52.370;9.006;2023-03-01T13:00:17;6.80;99.90
11242;DHT22;5678;52.370;9.006;2023-03-01T13:02:55;6.80;99.90
11242;DHT22;5678;52.370;9.006;2023-03-01T13:05:35;6.90;99.90
11242;DHT22;5678;52.370;9.006;2023-03-01T13:08:13;7.00;99.90
11242;DHT22;5678;52.370;9.006;2023-03-01T13:10:48;6.90;99.90
11242;DHT22;5678;52.370;9.006;2023-03-01T13:13:21;6.90;99.90
11242;DHT22;5678;52.370;9.006;2023-03-01T13:15:50;6.90;99.90
11242;DHT22;5678;52.370;9.006;2023-03-01T13:18:33;7.00;99.90
11242;DHT22;5678;52.370;9.006;2023-03-01T13:21:02;7.00;99.90
11242;DHT22;5678;52.370;9.006;2023-03-01T13:23:34;6.90;99.90
11242;DHT22;5678;52.370;9.006;2023-03-01T13:26:10;6.90;99.90
11242;DHT22;5678;52.370;9.006;2023-03-01T13:28:51;6.80;99.90
11242;DHT22;5678;52.370;9.006;2023-03-01T13:34:48;6.80;99.90
11242;DHT22;5678;52.370;9.006;2023-03-01T13:37:28;6.80;99.90
11242;DHT22;5678;52.370;9.006;2023-03-01T13:39:59;6.90;99.90
11242;DHT22;5678;52.370;9.006;2023-03-01T13:42:41;6.90;99.90
11242;DHT22;5678;52.370;9.006;2023-03-01T13:45:25;7.00;99.90
11242;DHT22;5678;52.370;9.006;2023-03-01T13:48:02;7.00;99.90
11242;DHT22;5678;52.370;9.006;2023-03-01T13:50:35;7.50;99.90
11242;DHT22;5678;52.370;9.006;2023-03-01T13:53:10;7.00;99.90
11242;DHT22;5678;52.370;9.006;2023-03-01T13:55:42;8.20;99.90
11242;DHT22;5678;52.370;9.006;2023-03-01T13:58:21;7.10;99.90
11242;DHT22;5678;52.370;9.006;2023-03-01T14:00:56;7.10;99.90
11242;DHT22;5678;52.370;9.006;2023-03-01T14:03:25;7.00;99.90
11242;DHT22;5678;52.370;9.006;2023-03-01T14:06:04;7.00;99.90
11242;DHT22;5678;52.370;9.006;2023-03-01T14:08:42;7.00;99.90
11242;DHT22;5678;52.370;9.006;2023-03-01T14:17:41;6.90;99.90
11242;DHT22;5678;52.370;9.006;2023-03-01T14:20:14;6.90;99.90
11242;DHT22;5678;52.370;9.006;2023-03-01T14:22:44;6.90;99.90
11242;DHT22;5678;52.370;9.006;2023-03-01T14:25:28;7.20;99.90
11242;DHT22;5678;52.370;9.006;2023-03-01T14:28:00;6.90;99.90
11242;DHT22;5678;52.370;9.006;2023-03-01T14:30:36;6.80;99.90
11242;DHT22;5678;52.370;9.006;2023-03-01T14:33:16;8.40;99.90
11242;DHT22;5678;52.370;9.006;2023-03-01T14:35:53;6.70;99.90
11242;DHT22;5678;52.370;9.006;2023-03-01T14:38:23;6.80;99.90
11242;DHT22;5678;52.370;9.006;2023-03-01T14:40:56;7.60;99.90
11242;DHT22;5678;52.370;9.006;2023-03-01T14:43:24;7.90;99.90
11242;DHT22;5678;52.370;9.006;2023-03-01T14:45:56;7.40;99.90
11242;DHT22;5678;52.370;9.006;2023-03-01T14:48:24;6.70;99.90
11242;DHT22;5678;52.370;9.006;2023-03-01T14:50:53;6.80;99.90
11242;DHT22;5678;52.370;9.006;2023-03-01T14:53:23;6.80;99.90
11242;DHT22;5678;52.370;9.006;2023-03-01T14:55:53;7.00;99.90
11242;DHT22;5678;52.370;9.006;2023-03-01T14:58:23;6.70;99.90
11242;DHT22;5678;52.370;9.006;2023-03-01T15:00:53;6.60;99.90
11242;DHT22;5678;52.370;9.006;2023-03-01T15:03:30;6.60;99.90
11242;DHT22;5678;52.370;9.006;2023-03-01T15:06:00;6.60;99.90
11242;DHT22;5678;52.370;9.006;2023-03-01T15:08:29;6.60;99.90
11242;DHT22;5678;52.370;9.006;2023-03-01T15:11:02;6.50;99.90
11242;DHT22;5678;52.370;9.006;2023-03-01T15:13:35;7.80;99.90
11242;DHT22;5678;52.370;9.006;2023-03-01T15:16:08;6.60;99.90
11242;DHT22;5678;52.370;9.006;2023-03-01T15:18:43;6.60;99.90
11242;DHT22;5678;52.370;9.006;2023-03-01T15:21:17;6.60;99.90
11242;DHT22;5678;52.370;9.006;2023-03-01T15:23:49;6.60;99.90
11242;DHT22;5678;52.370;9.006;2023-03-01T15:26:25;6.50;99.90
11242;DHT22;5678;52.370;9.006;2023-03-01T15:28:55;6.50;99.90
11242;DHT22;5678;52.370;9.006;2023-03-01T15:31:26;6.60;99.90
11242;DHT22;5678;52.370;9.006;2023-03-01T15:34:11;6.40;99.90
11242;DHT22;5678;52.370;9.006;2023-03-01T15:36:42;6.40;99.90
11242;DHT22;5678;52.370;9.006;2023-03-01T15:39:31;6.40;99.90
11242;DHT22;5678;52.370;9.006;2023-03-01T15:42:05;6.30;99.90
11242;DHT22;5678;52.370;9.006;2023-03-01T15:44:35;6.30;99.90
11242;DHT22;5678;52.370;9.006;2023-03-01T15:47:23;6.30;99.90
11242;DHT22;5678;52.370;9.006;2023-03-01T15:49:55;6.20;99.90
11242;DHT22;5678;52.370;9.006;2023-03-01T15:52:27;6.20;99.90
11242;DHT22;5678;52.370;9.006;2023-03-01T15:55:02;6.10;99.90
11242;DHT22;5678;52.370;9.006;2023-03-01T15:57:30;6.10;99.90
11242;DHT22;5678;52.370;9.006;2023-03-01T15:59:58;6.00;99.90
11242;DHT22;5678;52.370;9.006;2023-03-01T16:02:27;6.30;99.90
11242;DHT22;5678;52.370;9.006;2023-03-01T16:04:58;7.40;99.90
11242;DHT22;5678;52.370;9.006;2023-03-01T16:07:25;5.90;99.90
11242;DHT22;5678;52.370;9.006;2023-03-01T16:09:54;6.60;99.90
11242;DHT22;5678;52.370;9.006;2023-03-01T16:12:22;6.50;99.90
11242;DHT22;5678;52.370;9.006;2023-03-01T16:14:56;7.60;99.90
11242;DHT22;5678;52.370;9.006;2023-03-01T16:17:24;5.70;99.90
11242;DHT22;5678;52.370;9.006;2023-03-01T16:19:52;6.30;99.90
11242;DHT22;5678;52.370;9.006;2023-03-01T16:22:22;5.80;99.90
11242;DHT22;5678;52.370;9.006;2023-03-01T16:24:52;7.10;99.90
11242;DHT22;5678;52.370;9.006;2023-03-01T16:27:20;5.50;99.90
11242;DHT22;5678;52.370;9.006;2023-03-01T16:29:49;7.40;99.90
11242;DHT22;5678;52.370;9.006;2023-03-01T16:32:17;5.40;99.90
11242;DHT22;5678;52.370;9.006;2023-03-01T16:34:46;5.60;99.90
11242;DHT22;5678;52.370;9.006;2023-03-01T16:37:15;5.20;99.90
11242;DHT22;5678;52.370;9.006;2023-03-01T16:39:47;5.10;99.90
11242;DHT22;5678;52.370;9.006;2023-03-01T16:42:16;5.50;99.90